Time;durP1;ratioP1;P1;durP2;ratioP2;P2;SDS_P1;SDS_P2;PMS_P1;PMS_P2;Temp;Humidity;BMP_temperature;BMP_pressure;BME280_temperature;BME280_humidity;BME280_pressure;Samples;Min_cycle;Max_cycle;Signal;HPM_P1;HPM_P2
2021/08/14 00:01:11;;;;;;;12.25;7.55;;;;;;;;;;5028998;28;20375;-44
2021/08/14 00:03:38;;;;;;;10.45;7.05;;;;;;;;;;5031035;28;20064;-45
2021/08/14 00:06:04;;;;;;;12.00;6.55;;;;;;;;;;5032335;28;20037;-41
2021/08/14 00:08:31;;;;;;;9.82;6.45;;;;;;;;;;5020710;28;20069;-44
2021/08/14 00:10:58;;;;;;;13.55;7.78;;;;;;;;;;5022726;28;20046;-43
2021/08/14 00:13:25;;;;;;;8.82;6.30;;;;;;;;;;5027756;28;20047;-41
2021/08/14 00:15:51;;;;;;;11.30;6.60;;;;;;;;;;5033634;28;20096;-41
2021/08/14 00:18:18;;;;;;;12.52;7.68;;;;;;;;;;5032763;28;20121;-45
2021/08/14 00:20:45;;;;;;;11.20;6.95;;;;;;;;;;5034061;28;20410;-44
2021/08/14 00:23:12;;;;;;;12.32;7.28;;;;;;;;;;5033738;28;20038;-43
2021/08/14 00:25:38;;;;;;;11.60;6.57;;;;;;;;;;5032894;28;20061;-44
2021/08/14 00:28:05;;;;;;;12.48;6.97;;;;;;;;;;5030752;28;20069;-41
2021/08/14 00:30:32;;;;;;;18.15;7.40;;;;;;;;;;5033901;28;20516;-47
2021/08/14 00:32:59;;;;;;;10.45;7.10;;;;;;;;;;5022294;28;20463;-48
2021/08/14 00:35:25;;;;;;;10.77;6.72;;;;;;;;;;5013449;28;20125;-43
2021/08/14 00:37:53;;;;;;;14.82;6.95;;;;;;;;;;5022008;28;20056;-47
2021/08/14 00:40:20;;;;;;;11.20;6.95;;;;;;;;;;5033528;28;20053;-43
2021/08/14 00:42:47;;;;;;;11.55;6.55;;;;;;;;;;5024978;28;20479;-48
2021/08/14 00:45:14;;;;;;;14.10;7.03;;;;;;;;;;5014629;28;20046;-43
2021/08/14 00:47:42;;;;;;;12.48;6.65;;;;;;;;;;5027837;28;20046;-41
2021/08/14 00:50:10;;;;;;;13.80;6.50;;;;;;;;;;5033428;28;20048;-40
2021/08/14 00:52:37;;;;;;;11.75;6.93;;;;;;;;;;5025603;28;20079;-42
2021/08/14 00:55:04;;;;;;;10.27;6.68;;;;;;;;;;5015704;28;20510;-43
2021/08/14 00:57:30;;;;;;;13.13;6.88;;;;;;;;;;5032807;28;20096;-43
2021/08/14 00:59:57;;;;;;;12.70;6.88;;;;;;;;;;5031682;28;20144;-45
2021/08/14 01:02:24;;;;;;;12.63;6.53;;;;;;;;;;5031646;28;20048;-46
2021/08/14 01:04:51;;;;;;;11.63;6.78;;;;;;;;;;5032808;28;20079;-40
2021/08/14 01:07:19;;;;;;;12.05;6.65;;;;;;;;;;5028075;28;20117;-42
2021/08/14 01:09:46;;;;;;;12.38;6.60;;;;;;;;;;5030275;28;20415;-42
2021/08/14 01:12:14;;;;;;;11.00;6.47;;;;;;;;;;5029309;28;20030;-42
2021/08/14 01:14:41;;;;;;;12.55;6.90;;;;;;;;;;5014010;28;20418;-41
2021/08/14 01:17:08;;;;;;;13.25;6.50;;;;;;;;;;5014876;28;20537;-43
2021/08/14 01:19:34;;;;;;;14.68;7.00;;;;;;;;;;5032944;28;20129;-46
2021/08/14 01:22:03;;;;;;;13.07;6.70;;;;;;;;;;5031974;28;20383;-44
2021/08/14 01:24:34;;;;;;;13.27;6.53;;;;;;;;;;5013744;28;20042;-44
2021/08/14 01:27:01;;;;;;;9.90;6.43;;;;;;;;;;5018240;28;20072;-46
2021/08/14 01:29:27;;;;;;;11.07;6.22;;;;;;;;;;5031288;28;20057;-43
2021/08/14 01:31:54;;;;;;;9.65;5.78;;;;;;;;;;5032997;28;20486;-43
2021/08/14 01:34:21;;;;;;;13.13;6.13;;;;;;;;;;5012567;28;20042;-43
2021/08/14 01:37:02;;;;;;;11.73;6.72;;;;;;;;;;5033629;28;20554;-43
2021/08/14 01:39:32;;;;;;;9.95;6.70;;;;;;;;;;5030958;28;20045;-42
2021/08/14 01:42:00;;;;;;;12.68;6.63;;;;;;;;;;5015052;28;20120;-45
2021/08/14 01:44:27;;;;;;;11.98;6.97;;;;;;;;;;5020353;28;20040;-41
2021/08/14 01:46:54;;;;;;;13.00;6.80;;;;;;;;;;5031553;28;20052;-44
2021/08/14 01:49:22;;;;;;;13.52;6.57;;;;;;;;;;5050102;28;20037;-48
2021/08/14 01:51:48;;;;;;;11.23;6.80;;;;;;;;;;5038497;28;20491;-47
2021/08/14 01:54:16;;;;;;;10.02;6.32;;;;;;;;;;5030919;28;20057;-48
2021/08/14 01:56:43;;;;;;;10.95;6.88;;;;;;;;;;5020859;28;20042;-42
2021/08/14 01:59:11;;;;;;;11.45;6.90;;;;;;;;;;5013756;28;20462;-46
2021/08/14 02:01:38;;;;;;;15.75;6.88;;;;;;;;;;5032237;28;20044;-45
2021/08/14 02:04:05;;;;;;;12.77;7.20;;;;;;;;;;5030337;28;20132;-43
2021/08/14 02:06:32;;;;;;;15.93;7.60;;;;;;;;;;5012579;28;20052;-43
2021/08/14 02:08:59;;;;;;;11.27;6.20;;;;;;;;;;5022879;28;20045;-45
2021/08/14 02:11:27;;;;;;;15.10;7.18;;;;;;;;;;5013617;28;20082;-43
2021/08/14 02:13:55;;;;;;;13.57;7.28;;;;;;;;;;5013409;28;20495;-46
2021/08/14 02:16:22;;;;;;;11.27;7.45;;;;;;;;;;5014019;28;20038;-45
2021/08/14 02:18:50;;;;;;;12.73;7.20;;;;;;;;;;5030807;28;20041;-42
2021/08/14 02:21:17;;;;;;;11.50;7.10;;;;;;;;;;5020139;28;20045;-44
2021/08/14 02:23:43;;;;;;;12.30;6.72;;;;;;;;;;5012346;28;20054;-43
2021/08/14 02:26:10;;;;;;;12.30;7.45;;;;;;;;;;5020381;28;20491;-44
2021/08/14 02:28:37;;;;;;;11.95;6.93;;;;;;;;;;5031705;28;20045;-45
2021/08/14 02:31:05;;;;;;;13.68;6.57;;;;;;;;;;5018680;28;20077;-42
2021/08/14 02:33:33;;;;;;;12.85;6.55;;;;;;;;;;5012229;28;20562;-43
2021/08/14 02:36:04;;;;;;;9.27;6.53;;;;;;;;;;5022933;28;20491;-43
2021/08/14 02:38:31;;;;;;;13.73;6.65;;;;;;;;;;5026955;28;20124;-42
2021/08/14 02:40:57;;;;;;;11.00;7.13;;;;;;;;;;5031822;28;20124;-45
2021/08/14 02:43:24;;;;;;;9.43;6.30;;;;;;;;;;5021866;28;20065;-42
2021/08/14 02:45:51;;;;;;;12.75;6.82;;;;;;;;;;5012519;28;20046;-47
2021/08/14 02:48:18;;;;;;;10.55;6.60;;;;;;;;;;5020231;28;20046;-49
2021/08/14 02:50:45;;;;;;;12.90;6.68;;;;;;;;;;5017857;28;20042;-46
2021/08/14 02:53:12;;;;;;;13.23;7.20;;;;;;;;;;5011852;28;20069;-46
2021/08/14 02:55:39;;;;;;;10.98;7.10;;;;;;;;;;5013659;28;20057;-44
2021/08/14 02:58:06;;;;;;;11.40;7.10;;;;;;;;;;5045916;28;20485;-43
2021/08/14 03:00:34;;;;;;;11.23;7.13;;;;;;;;;;5011550;28;20041;-43
2021/08/14 03:03:01;;;;;;;11.05;7.30;;;;;;;;;;5031321;28;20037;-45
2021/08/14 03:05:28;;;;;;;10.98;6.80;;;;;;;;;;5030810;28;20562;-42
2021/08/14 03:07:54;;;;;;;12.30;7.47;;;;;;;;;;5012090;28;20465;-45
2021/08/14 03:10:21;;;;;;;10.35;7.25;;;;;;;;;;5046163;28;20045;-43
2021/08/14 03:12:48;;;;;;;14.52;7.40;;;;;;;;;;5031509;28;20045;-44
2021/08/14 03:15:16;;;;;;;10.10;7.00;;;;;;;;;;5027986;28;20518;-46
2021/08/14 03:17:42;;;;;;;16.67;8.00;;;;;;;;;;5030719;28;20501;-44
2021/08/14 03:20:10;;;;;;;12.30;8.02;;;;;;;;;;5026940;28;20038;-44
2021/08/14 03:22:37;;;;;;;13.93;8.27;;;;;;;;;;5011672;28;20619;-46
2021/08/14 03:25:04;;;;;;;14.30;7.72;;;;;;;;;;5014241;28;20076;-43
2021/08/14 03:27:31;;;;;;;13.38;7.00;;;;;;;;;;5030476;28;20679;-44
2021/08/14 03:29:57;;;;;;;12.73;8.10;;;;;;;;;;5029978;28;20044;-46
2021/08/14 03:32:24;;;;;;;12.10;7.00;;;;;;;;;;5012674;28;20511;-45
2021/08/14 03:34:51;;;;;;;11.65;7.25;;;;;;;;;;5025728;28;20048;-46
2021/08/14 03:37:17;;;;;;;12.43;7.50;;;;;;;;;;5031163;28;20041;-43
2021/08/14 03:39:44;;;;;;;12.18;7.28;;;;;;;;;;5030227;28;20052;-48
2021/08/14 03:42:11;;;;;;;12.85;7.72;;;;;;;;;;5031095;28;20045;-43
2021/08/14 03:44:38;;;;;;;18.33;7.85;;;;;;;;;;5030748;28;20044;-44
2021/08/14 03:47:04;;;;;;;14.98;8.30;;;;;;;;;;5022297;28;20124;-43
2021/08/14 03:49:31;;;;;;;14.38;8.18;;;;;;;;;;5031088;28;20034;-45
2021/08/14 03:51:58;;;;;;;13.18;7.43;;;;;;;;;;5014725;28;20077;-45
2021/08/14 03:54:24;;;;;;;11.73;6.95;;;;;;;;;;5011039;28;20402;-48
2021/08/14 03:56:53;;;;;;;12.45;7.43;;;;;;;;;;4994059;28;20065;-45
2021/08/14 03:59:20;;;;;;;13.02;7.53;;;;;;;;;;5012959;28;20046;-45
2021/08/14 04:01:47;;;;;;;11.73;7.43;;;;;;;;;;5025990;28;20033;-46
2021/08/14 04:04:14;;;;;;;13.30;8.02;;;;;;;;;;5030181;28;20128;-48
2021/08/14 04:06:41;;;;;;;10.90;7.30;;;;;;;;;;5029697;28;20471;-45
2021/08/14 04:09:07;;;;;;;11.73;7.38;;;;;;;;;;5029962;28;20052;-48
2021/08/14 04:11:34;;;;;;;14.32;8.18;;;;;;;;;;5019898;28;20125;-49
2021/08/14 04:14:01;;;;;;;18.60;9.00;;;;;;;;;;5011060;28;20528;-48
2021/08/14 04:16:27;;;;;;;15.45;7.82;;;;;;;;;;5019222;28;20038;-51
2021/08/14 04:18:54;;;;;;;11.52;7.70;;;;;;;;;;5033080;28;20486;-52
2021/08/14 04:21:21;;;;;;;12.98;7.47;;;;;;;;;;5034149;28;20068;-48
2021/08/14 04:23:48;;;;;;;13.63;7.85;;;;;;;;;;5034700;28;20048;-51
2021/08/14 04:26:14;;;;;;;10.85;7.88;;;;;;;;;;5026455;28;20052;-50
2021/08/14 04:28:41;;;;;;;11.75;7.88;;;;;;;;;;5021800;28;20515;-51
2021/08/14 04:31:08;;;;;;;11.57;7.63;;;;;;;;;;5030305;28;20384;-47
2021/08/14 04:33:34;;;;;;;11.55;7.22;;;;;;;;;;5033028;28;20047;-50
2021/08/14 04:36:01;;;;;;;11.02;7.43;;;;;;;;;;5030171;28;20038;-50
2021/08/14 04:38:28;;;;;;;11.75;8.00;;;;;;;;;;5020289;28;20502;-51
2021/08/14 04:40:55;;;;;;;15.07;8.32;;;;;;;;;;5031899;28;20038;-50
2021/08/14 04:43:21;;;;;;;11.98;7.72;;;;;;;;;;5014408;28;20042;-51
2021/08/14 04:45:48;;;;;;;15.18;7.57;;;;;;;;;;5030150;28;20070;-49
2021/08/14 04:48:15;;;;;;;12.00;7.40;;;;;;;;;;5031530;28;20433;-51
2021/08/14 04:50:42;;;;;;;13.18;7.20;;;;;;;;;;5034117;28;20047;-51
2021/08/14 04:53:10;;;;;;;13.73;8.05;;;;;;;;;;5034112;28;20046;-49
2021/08/14 04:55:36;;;;;;;10.80;7.85;;;;;;;;;;5033049;28;20041;-50
2021/08/14 04:58:03;;;;;;;10.27;7.55;;;;;;;;;;5031126;28;20042;-52
2021/08/14 05:00:30;;;;;;;15.90;8.27;;;;;;;;;;5030160;28;20551;-52
2021/08/14 05:02:57;;;;;;;9.65;7.65;;;;;;;;;;5027583;28;20228;-49
2021/08/14 05:05:25;;;;;;;10.98;7.53;;;;;;;;;;5030226;28;20072;-47
2021/08/14 05:07:52;;;;;;;11.40;7.30;;;;;;;;;;5050864;28;20513;-50
2021/08/14 05:10:19;;;;;;;11.73;7.50;;;;;;;;;;5027366;28;20042;-46
2021/08/14 05:12:45;;;;;;;11.60;7.97;;;;;;;;;;5014089;28;20045;-50
2021/08/14 05:15:12;;;;;;;10.40;6.97;;;;;;;;;;5021853;28;20087;-49
2021/08/14 05:17:40;;;;;;;11.32;6.95;;;;;;;;;;5031210;28;20495;-48
2021/08/14 05:20:07;;;;;;;11.60;7.72;;;;;;;;;;5033748;28;20045;-51
2021/08/14 05:22:34;;;;;;;10.93;7.28;;;;;;;;;;5027640;28;20049;-48
2021/08/14 05:25:00;;;;;;;16.13;9.43;;;;;;;;;;5013497;28;20137;-49
2021/08/14 05:27:27;;;;;;;15.82;9.23;;;;;;;;;;5018619;28;20133;-53
2021/08/14 05:29:54;;;;;;;12.57;8.13;;;;;;;;;;5012665;28;20458;-49
2021/08/14 05:32:20;;;;;;;11.30;7.97;;;;;;;;;;5015358;28;20044;-48
2021/08/14 05:34:47;;;;;;;10.40;7.20;;;;;;;;;;5032001;28;20052;-50
2021/08/14 05:37:14;;;;;;;13.23;7.20;;;;;;;;;;5031758;28;20045;-49
2021/08/14 05:39:41;;;;;;;11.88;8.10;;;;;;;;;;5029330;28;20457;-47
2021/08/14 05:42:08;;;;;;;12.95;8.00;;;;;;;;;;5032983;28;20060;-45
2021/08/14 05:44:35;;;;;;;13.23;6.97;;;;;;;;;;5013197;28;20042;-48
2021/08/14 05:47:02;;;;;;;11.05;7.80;;;;;;;;;;5024400;28;20041;-46
2021/08/14 05:49:29;;;;;;;10.57;7.65;;;;;;;;;;5026322;28;20048;-48
2021/08/14 05:51:58;;;;;;;12.93;7.68;;;;;;;;;;5017873;28;20045;-51
2021/08/14 05:54:25;;;;;;;14.63;7.95;;;;;;;;;;5028473;28;20125;-48
2021/08/14 05:56:52;;;;;;;18.20;8.55;;;;;;;;;;5030447;28;20504;-51
2021/08/14 05:59:18;;;;;;;13.50;7.63;;;;;;;;;;5016400;28;20048;-46
2021/08/14 06:01:45;;;;;;;14.15;7.55;;;;;;;;;;5026783;28;20045;-50
2021/08/14 06:04:12;;;;;;;13.32;7.55;;;;;;;;;;5022034;28;20041;-48
2021/08/14 06:06:43;;;;;;;11.65;7.60;;;;;;;;;;5025083;28;20049;-47
2021/08/14 06:09:10;;;;;;;11.48;6.97;;;;;;;;;;5026612;28;20048;-47
2021/08/14 06:11:37;;;;;;;11.68;8.10;;;;;;;;;;5031862;28;20471;-44
2021/08/14 06:14:04;;;;;;;11.55;7.47;;;;;;;;;;5021703;28;20280;-42
2021/08/14 06:16:31;;;;;;;12.65;7.32;;;;;;;;;;5023961;28;20041;-46
2021/08/14 06:18:57;;;;;;;10.85;7.28;;;;;;;;;;5026211;28;20038;-45
2021/08/14 06:21:24;;;;;;;12.23;6.90;;;;;;;;;;5026469;28;20049;-43
2021/08/14 06:23:51;;;;;;;13.43;8.02;;;;;;;;;;5017546;28;20051;-43
2021/08/14 06:26:17;;;;;;;12.88;7.57;;;;;;;;;;5031784;28;20047;-45
2021/08/14 06:28:44;;;;;;;13.60;8.18;;;;;;;;;;5032148;28;20045;-43
2021/08/14 06:31:11;;;;;;;11.65;6.97;;;;;;;;;;5032431;28;20057;-43
2021/08/14 06:33:38;;;;;;;9.98;6.72;;;;;;;;;;5032544;28;20044;-46
2021/08/14 06:36:05;;;;;;;12.55;6.93;;;;;;;;;;5032023;28;20049;-47
2021/08/14 06:38:31;;;;;;;11.48;6.85;;;;;;;;;;5030543;28;20487;-42
2021/08/14 06:40:58;;;;;;;10.45;6.35;;;;;;;;;;5007821;28;20124;-47
2021/08/14 06:43:25;;;;;;;9.40;6.53;;;;;;;;;;5028373;28;20561;-44
2021/08/14 06:45:52;;;;;;;10.40;7.97;;;;;;;;;;5027082;28;20048;-46
2021/08/14 06:48:19;;;;;;;10.82;6.80;;;;;;;;;;5023626;28;20065;-44
2021/08/14 06:50:45;;;;;;;11.23;7.20;;;;;;;;;;5029037;28;20494;-45
2021/08/14 06:53:15;;;;;;;11.75;6.85;;;;;;;;;;5030464;28;20052;-45
2021/08/14 06:55:42;;;;;;;14.27;7.57;;;;;;;;;;5025478;28;20117;-44
2021/08/14 06:58:09;;;;;;;9.70;6.32;;;;;;;;;;5011771;28;20046;-44
2021/08/14 07:00:36;;;;;;;10.57;7.30;;;;;;;;;;5015805;28;20455;-44
2021/08/14 07:03:05;;;;;;;9.73;7.03;;;;;;;;;;5029209;28;20033;-46
2021/08/14 07:05:32;;;;;;;10.77;6.57;;;;;;;;;;5030195;28;20034;-44
2021/08/14 07:07:59;;;;;;;8.63;6.53;;;;;;;;;;5043145;28;20592;-47
2021/08/14 07:10:26;;;;;;;11.23;6.57;;;;;;;;;;5029144;28;20121;-41
2021/08/14 07:12:52;;;;;;;9.40;6.80;;;;;;;;;;5031680;28;20047;-41
2021/08/14 07:15:20;;;;;;;10.85;7.15;;;;;;;;;;5028464;28;20041;-41
2021/08/14 07:17:47;;;;;;;11.45;7.07;;;;;;;;;;5019635;28;20038;-48
2021/08/14 07:20:14;;;;;;;9.93;6.55;;;;;;;;;;5028564;28;20040;-53
2021/08/14 07:22:41;;;;;;;12.45;6.97;;;;;;;;;;5028315;28;20046;-50
2021/08/14 07:25:08;;;;;;;9.65;6.63;;;;;;;;;;5026821;28;20651;-49
2021/08/14 07:27:35;;;;;;;11.80;6.90;;;;;;;;;;5026980;28;20045;-47
2021/08/14 07:30:02;;;;;;;10.13;6.70;;;;;;;;;;5021661;28;20060;-50
2021/08/14 07:32:29;;;;;;;10.88;6.78;;;;;;;;;;5014153;28;20038;-49
2021/08/14 07:34:56;;;;;;;9.70;6.80;;;;;;;;;;5015585;28;20129;-44
2021/08/14 07:37:22;;;;;;;13.82;7.32;;;;;;;;;;5024376;28;20041;-48
2021/08/14 07:39:49;;;;;;;11.00;6.30;;;;;;;;;;5030286;28;20407;-47
2021/08/14 07:42:16;;;;;;;8.73;7.35;;;;;;;;;;5031129;28;20045;-46
2021/08/14 07:44:43;;;;;;;12.65;7.03;;;;;;;;;;5030658;28;20416;-47
2021/08/14 07:47:14;;;;;;;9.43;6.93;;;;;;;;;;5030688;28;20041;-46
2021/08/14 07:49:41;;;;;;;9.88;6.93;;;;;;;;;;5030908;28;20041;-43
2021/08/14 07:52:08;;;;;;;8.80;6.72;;;;;;;;;;5030928;28;20432;-44
2021/08/14 07:54:35;;;;;;;13.10;7.28;;;;;;;;;;5034269;28;20045;-46
2021/08/14 07:57:02;;;;;;;10.35;6.95;;;;;;;;;;5016093;28;20121;-45
2021/08/14 07:59:29;;;;;;;10.23;6.93;;;;;;;;;;5015425;28;20038;-45
2021/08/14 08:01:55;;;;;;;11.23;7.10;;;;;;;;;;5015535;28;20065;-43
2021/08/14 08:04:22;;;;;;;8.90;7.00;;;;;;;;;;5023229;28;20052;-44
2021/08/14 08:06:49;;;;;;;8.18;6.82;;;;;;;;;;5034751;28;20453;-43
2021/08/14 08:09:16;;;;;;;11.63;7.10;;;;;;;;;;5035006;28;20041;-46
2021/08/14 08:11:42;;;;;;;8.40;6.47;;;;;;;;;;5034707;28;20045;-43
2021/08/14 08:14:09;;;;;;;8.85;6.60;;;;;;;;;;5034355;28;20479;-42
2021/08/14 08:16:36;;;;;;;8.68;6.60;;;;;;;;;;5034070;28;20424;-49
2021/08/14 08:19:03;;;;;;;8.70;6.88;;;;;;;;;;5034340;28;20045;-46
2021/08/14 08:21:30;;;;;;;13.43;6.68;;;;;;;;;;5034347;28;20067;-44
2021/08/14 08:23:56;;;;;;;8.85;6.70;;;;;;;;;;5034306;28;20064;-47
2021/08/14 08:26:24;;;;;;;9.52;6.35;;;;;;;;;;5033660;28;20099;-46
2021/08/14 08:28:52;;;;;;;12.00;6.20;;;;;;;;;;5034092;28;20053;-46
2021/08/14 08:31:18;;;;;;;7.32;6.15;;;;;;;;;;5034335;28;20092;-46
2021/08/14 08:33:45;;;;;;;8.40;6.15;;;;;;;;;;5034106;28;20099;-42
2021/08/14 08:36:12;;;;;;;10.35;6.20;;;;;;;;;;5033350;28;20041;-43
2021/08/14 08:38:40;;;;;;;7.65;5.80;;;;;;;;;;5033416;28;20140;-45
2021/08/14 08:41:08;;;;;;;7.95;6.05;;;;;;;;;;5034288;28;20100;-42
2021/08/14 08:43:40;;;;;;;10.77;5.93;;;;;;;;;;5033885;28;20131;-47
2021/08/14 08:46:10;;;;;;;6.80;5.53;;;;;;;;;;5032985;28;20042;-42
2021/08/14 08:48:40;;;;;;;8.52;5.43;;;;;;;;;;5033965;28;20037;-45
2021/08/14 08:51:07;;;;;;;7.32;5.63;;;;;;;;;;5034362;28;20049;-43
2021/08/14 08:53:34;;;;;;;8.32;5.57;;;;;;;;;;5033853;28;20045;-44
2021/08/14 08:56:01;;;;;;;7.65;5.72;;;;;;;;;;5033144;28;20124;-44
2021/08/14 08:58:27;;;;;;;7.75;6.00;;;;;;;;;;5033607;28;20093;-44
2021/08/14 09:00:54;;;;;;;10.35;6.03;;;;;;;;;;5033901;28;20041;-44
2021/08/14 09:03:25;;;;;;;7.20;6.15;;;;;;;;;;5032973;28;20490;-43
2021/08/14 09:05:52;;;;;;;8.85;5.72;;;;;;;;;;5031281;28;20045;-44
2021/08/14 09:08:19;;;;;;;8.18;6.50;;;;;;;;;;5033664;28;20056;-42
2021/08/14 09:10:47;;;;;;;8.38;6.13;;;;;;;;;;5032954;28;20052;-46
2021/08/14 09:13:15;;;;;;;8.65;6.50;;;;;;;;;;5033705;28;20073;-44
2021/08/14 09:15:42;;;;;;;7.85;6.20;;;;;;;;;;5033377;28;20034;-43
2021/08/14 09:18:10;;;;;;;10.10;6.72;;;;;;;;;;5032456;28;20064;-44
2021/08/14 09:21:03;;;;;;;10.10;5.80;;;;;;;;;;5033412;28;20052;-43
2021/08/14 09:23:38;;;;;;;8.18;5.82;;;;;;;;;;5030973;28;20057;-44
2021/08/14 09:26:07;;;;;;;8.80;5.85;;;;;;;;;;5032644;28;20037;-43
2021/08/14 09:28:35;;;;;;;8.00;5.85;;;;;;;;;;5032792;28;20048;-42
2021/08/14 09:31:03;;;;;;;7.22;5.65;;;;;;;;;;5033857;28;20140;-46
2021/08/14 09:33:34;;;;;;;8.88;6.50;;;;;;;;;;5032788;28;20037;-45
2021/08/14 09:36:03;;;;;;;9.05;5.70;;;;;;;;;;5032979;28;20510;-46
2021/08/14 09:38:38;;;;;;;8.90;5.45;;;;;;;;;;5031970;28;20483;-46
2021/08/14 09:41:08;;;;;;;9.60;6.13;;;;;;;;;;5032926;28;20046;-44
2021/08/14 09:43:35;;;;;;;10.52;5.95;;;;;;;;;;5032970;28;20042;-45
2021/08/14 09:46:02;;;;;;;6.50;5.45;;;;;;;;;;5014297;28;20045;-47
2021/08/14 09:48:31;;;;;;;7.22;5.15;;;;;;;;;;5032690;28;20056;-46
2021/08/14 09:50:57;;;;;;;11.25;6.43;;;;;;;;;;5032774;28;20507;-44
2021/08/14 09:53:25;;;;;;;8.35;5.78;;;;;;;;;;5032763;28;20080;-46
2021/08/14 09:56:07;;;;;;;11.48;6.70;;;;;;;;;;5031361;28;20049;-46
2021/08/14 09:58:35;;;;;;;10.05;6.50;;;;;;;;;;5032728;28;20041;-48
2021/08/14 10:01:02;;;;;;;8.90;5.68;;;;;;;;;;5015092;28;20045;-46
2021/08/14 10:03:30;;;;;;;11.18;6.55;;;;;;;;;;5032045;28;20112;-47
2021/08/14 10:05:58;;;;;;;8.45;6.28;;;;;;;;;;5032229;28;20076;-49
2021/08/14 10:08:26;;;;;;;8.48;6.38;;;;;;;;;;5031450;28;20143;-44
2021/08/14 10:10:54;;;;;;;7.85;5.97;;;;;;;;;;5034685;28;20116;-46
2021/08/14 10:13:21;;;;;;;11.27;6.63;;;;;;;;;;5030955;28;20042;-46
2021/08/14 10:15:49;;;;;;;10.75;6.95;;;;;;;;;;5031591;28;20056;-46
2021/08/14 10:18:19;;;;;;;10.70;6.72;;;;;;;;;;5029099;28;20033;-44
2021/08/14 10:20:47;;;;;;;10.15;6.78;;;;;;;;;;5031462;28;20124;-45
2021/08/14 10:23:18;;;;;;;10.32;6.00;;;;;;;;;;5019344;28;20132;-47
2021/08/14 10:25:46;;;;;;;11.90;6.67;;;;;;;;;;5023038;28;20076;-45
2021/08/14 10:28:13;;;;;;;10.07;6.55;;;;;;;;;;5030381;28;20052;-46
2021/08/14 10:30:50;;;;;;;10.15;6.20;;;;;;;;;;5031269;28;20056;-47
2021/08/14 10:33:26;;;;;;;9.90;6.10;;;;;;;;;;5028808;28;20356;-47
2021/08/14 10:35:53;;;;;;;10.35;6.57;;;;;;;;;;5022010;28;20040;-42
2021/08/14 10:38:40;;;;;;;12.85;6.60;;;;;;;;;;5030259;28;20034;-44
2021/08/14 10:41:07;;;;;;;9.32;6.47;;;;;;;;;;5022978;28;20048;-45
2021/08/14 10:43:52;;;;;;;9.90;6.40;;;;;;;;;;5027224;28;20053;-44
2021/08/14 10:46:31;;;;;;;9.75;6.20;;;;;;;;;;5024557;28;20120;-42
2021/08/14 10:48:58;;;;;;;13.35;6.47;;;;;;;;;;5024987;28;20128;-47
2021/08/14 10:51:45;;;;;;;8.23;5.72;;;;;;;;;;5046249;28;20481;-42
2021/08/14 10:54:12;;;;;;;9.25;5.97;;;;;;;;;;5028579;28;20057;-45
2021/08/14 10:56:50;;;;;;;8.98;5.68;;;;;;;;;;5021478;28;20400;-46
2021/08/14 10:59:36;;;;;;;10.23;6.40;;;;;;;;;;5026175;28;20034;-44
2021/08/14 11:02:09;;;;;;;9.45;6.38;;;;;;;;;;5023437;28;20046;-45
2021/08/14 11:04:41;;;;;;;8.00;5.68;;;;;;;;;;5026051;28;20045;-45
2021/08/14 11:07:20;;;;;;;9.90;6.67;;;;;;;;;;5030405;28;20418;-46
2021/08/14 11:09:52;;;;;;;8.80;6.20;;;;;;;;;;5025496;28;20109;-43
2021/08/14 11:12:19;;;;;;;;;;;;;;;;;;5030973;28;20034;-42
2021/08/14 11:14:46;;;;;;;11.00;6.63;;;;;;;;;;5007324;28;19932;-47
2021/08/14 11:17:14;;;;;;;10.15;6.07;;;;;;;;;;5023170;28;20045;-47
2021/08/14 11:19:44;;;;;;;10.20;5.70;;;;;;;;;;5029031;28;20502;-44
2021/08/14 11:22:21;;;;;;;8.82;5.90;;;;;;;;;;5031095;28;20547;-43
2021/08/14 11:24:49;;;;;;;9.80;5.82;;;;;;;;;;5030881;28;20064;-47
2021/08/14 11:27:26;;;;;;;11.80;6.13;;;;;;;;;;5026799;28;20049;-46
2021/08/14 11:29:54;;;;;;;11.18;6.30;;;;;;;;;;5028981;28;20045;-46
2021/08/14 11:32:22;;;;;;;10.32;5.95;;;;;;;;;;5027168;28;20166;-45
2021/08/14 11:34:50;;;;;;;12.27;5.88;;;;;;;;;;5024410;28;20045;-44
2021/08/14 11:37:16;;;;;;;9.77;5.82;;;;;;;;;;5030188;28;20415;-44
2021/08/14 11:39:43;;;;;;;12.70;6.30;;;;;;;;;;5030550;28;20487;-40
2021/08/14 11:42:11;;;;;;;8.50;6.30;;;;;;;;;;5009884;28;20050;-43
2021/08/14 11:44:41;;;;;;;10.50;6.35;;;;;;;;;;5030565;28;20096;-41
2021/08/14 11:47:09;;;;;;;8.20;6.22;;;;;;;;;;5025566;28;20468;-43
2021/08/14 11:49:55;;;;;;;14.02;6.20;;;;;;;;;;5023571;28;20049;-36
2021/08/14 11:52:25;;;;;;;17.80;6.90;;;;;;;;;;5014743;28;20067;-40
2021/08/14 11:55:11;;;;;;;9.70;6.47;;;;;;;;;;5029662;28;20046;-38
2021/08/14 11:57:41;;;;;;;8.15;6.10;;;;;;;;;;5028113;28;20072;-37
2021/08/14 12:00:17;;;;;;;8.43;6.22;;;;;;;;;;5030552;28;20033;-38
2021/08/14 12:02:44;;;;;;;7.93;6.13;;;;;;;;;;5028111;28;20037;-38
2021/08/14 12:05:11;;;;;;;8.48;6.25;;;;;;;;;;5025129;28;20411;-39
2021/08/14 12:07:44;;;;;;;12.77;6.50;;;;;;;;;;5028908;28;20120;-38
2021/08/14 12:10:11;;;;;;;8.73;6.20;;;;;;;;;;5026008;28;20569;-38
2021/08/14 12:12:38;;;;;;;10.10;6.35;;;;;;;;;;5023203;28;20046;-38
2021/08/14 12:15:11;;;;;;;8.85;6.07;;;;;;;;;;5027510;28;20049;-38
2021/08/14 12:17:42;;;;;;;9.23;6.38;;;;;;;;;;5025267;28;20128;-37
2021/08/14 12:20:09;;;;;;;8.45;6.40;;;;;;;;;;5026283;28;20038;-38
2021/08/14 12:22:37;;;;;;;10.73;6.32;;;;;;;;;;5027331;28;20045;-37
2021/08/14 12:25:23;;;;;;;12.32;6.20;;;;;;;;;;5028693;28;20048;-38
2021/08/14 12:27:50;;;;;;;10.48;6.50;;;;;;;;;;5025167;28;20071;-37
2021/08/14 12:30:21;;;;;;;9.90;6.30;;;;;;;;;;5023854;28;20041;-38
2021/08/14 12:32:49;;;;;;;13.53;6.10;;;;;;;;;;5021988;28;20052;-37
2021/08/14 12:35:21;;;;;;;13.38;6.35;;;;;;;;;;5025325;28;20340;-40
2021/08/14 12:37:48;;;;;;;8.48;6.00;;;;;;;;;;5025860;28;20101;-39
2021/08/14 12:40:16;;;;;;;9.70;6.07;;;;;;;;;;5028938;28;20072;-38
2021/08/14 12:42:42;;;;;;;11.18;6.22;;;;;;;;;;5028202;28;20037;-38
2021/08/14 12:45:14;;;;;;;10.23;6.10;;;;;;;;;;5028959;28;20041;-40
2021/08/14 12:47:41;;;;;;;11.98;6.43;;;;;;;;;;5022470;28;20037;-38
2021/08/14 12:50:17;;;;;;;12.30;5.65;;;;;;;;;;5033523;28;20048;-38
2021/08/14 12:52:54;;;;;;;9.57;6.18;;;;;;;;;;5032682;28;20128;-38
2021/08/14 12:55:25;;;;;;;8.70;6.18;;;;;;;;;;5031948;28;20041;-38
2021/08/14 12:57:52;;;;;;;8.38;5.82;;;;;;;;;;5022014;28;20064;-38
2021/08/14 13:00:18;;;;;;;10.23;5.35;;;;;;;;;;5026766;28;20072;-38
2021/08/14 13:02:48;;;;;;;11.40;5.75;;;;;;;;;;5033206;28;20029;-38
2021/08/14 13:05:16;;;;;;;12.88;6.05;;;;;;;;;;5027364;28;20455;-38
2021/08/14 13:07:43;;;;;;;8.02;5.70;;;;;;;;;;5038785;28;20041;-38
2021/08/14 13:10:10;;;;;;;7.93;5.88;;;;;;;;;;5033809;28;20045;-39
2021/08/14 13:12:44;;;;;;;7.95;5.97;;;;;;;;;;5033960;28;20402;-39
2021/08/14 13:15:11;;;;;;;13.10;6.65;;;;;;;;;;5033851;28;20037;-39
2021/08/14 13:17:39;;;;;;;9.95;6.22;;;;;;;;;;5032539;28;20046;-40
2021/08/14 13:20:06;;;;;;;10.50;6.03;;;;;;;;;;5033585;28;20505;-39
2021/08/14 13:22:32;;;;;;;10.30;6.20;;;;;;;;;;5033449;28;20434;-39
2021/08/14 13:24:59;;;;;;;9.02;6.25;;;;;;;;;;5032968;28;20048;-39
2021/08/14 13:27:26;;;;;;;11.00;5.93;;;;;;;;;;5029457;28;20039;-37
2021/08/14 13:29:52;;;;;;;10.27;5.78;;;;;;;;;;5012723;28;20045;-41
2021/08/14 13:32:19;;;;;;;10.43;5.80;;;;;;;;;;5031694;28;20038;-39
2021/08/14 13:34:46;;;;;;;8.13;5.82;;;;;;;;;;5026079;28;20069;-38
2021/08/14 13:37:16;;;;;;;12.88;5.78;;;;;;;;;;5031382;28;20068;-39
2021/08/14 13:39:42;;;;;;;9.20;5.97;;;;;;;;;;5029712;28;20471;-38
2021/08/14 13:42:09;;;;;;;11.70;5.95;;;;;;;;;;5032658;28;20124;-38
2021/08/14 13:44:36;;;;;;;16.35;6.07;;;;;;;;;;5031537;28;20076;-38
2021/08/14 13:47:11;;;;;;;11.25;5.20;;;;;;;;;;5016964;28;20042;-38
2021/08/14 13:49:38;;;;;;;13.10;5.88;;;;;;;;;;5026554;28;20063;-39
2021/08/14 13:52:05;;;;;;;10.15;5.80;;;;;;;;;;5031709;28;20059;-38
2021/08/14 13:54:31;;;;;;;10.52;6.20;;;;;;;;;;5031726;28;20083;-38
2021/08/14 13:56:58;;;;;;;10.77;5.53;;;;;;;;;;5028108;28;20091;-40
2021/08/14 13:59:25;;;;;;;9.52;5.82;;;;;;;;;;5028150;28;20037;-41
2021/08/14 14:01:52;;;;;;;12.45;6.53;;;;;;;;;;5025234;28;20033;-43
2021/08/14 14:04:19;;;;;;;12.52;6.05;;;;;;;;;;5030969;28;20069;-42
2021/08/14 14:06:45;;;;;;;12.07;6.40;;;;;;;;;;5032191;28;20243;-41
2021/08/14 14:09:12;;;;;;;11.82;5.65;;;;;;;;;;5031411;28;20049;-41
2021/08/14 14:11:39;;;;;;;10.98;6.30;;;;;;;;;;5029790;28;20060;-41
2021/08/14 14:14:06;;;;;;;14.23;6.38;;;;;;;;;;5033021;28;20037;-41
2021/08/14 14:16:32;;;;;;;9.52;5.75;;;;;;;;;;5031421;28;20505;-40
2021/08/14 14:18:59;;;;;;;11.52;5.55;;;;;;;;;;5029671;28;20060;-40
2021/08/14 14:21:26;;;;;;;9.65;5.75;;;;;;;;;;5023541;28;20137;-39
2021/08/14 14:23:53;;;;;;;12.57;5.95;;;;;;;;;;5026463;28;20046;-41
2021/08/14 14:26:19;;;;;;;11.93;6.05;;;;;;;;;;5017791;28;20092;-40
2021/08/14 14:28:50;;;;;;;12.25;5.68;;;;;;;;;;5021149;28;20041;-41
2021/08/14 14:31:17;;;;;;;10.35;6.32;;;;;;;;;;5023003;28;20545;-40
2021/08/14 14:33:44;;;;;;;11.05;5.18;;;;;;;;;;5017360;28;20406;-41
2021/08/14 14:36:15;;;;;;;9.70;5.85;;;;;;;;;;5026422;28;20047;-40
2021/08/14 14:38:42;;;;;;;12.43;5.30;;;;;;;;;;5032365;28;20041;-41